sensor_id;sensor_type;location;lat;lon;timestamp;temperature;humidity
997;DHT22;487;50.126;8.698;2023-06-26T04:01:53;23.00;1.00
997;DHT22;487;50.126;8.698;2023-06-26T04:06:49;22.80;1.00
997;DHT22;487;50.126;8.698;2023-06-26T04:11:46;22.70;1.00
997;DHT22;487;50.126;8.698;2023-06-26T04:14:14;22.60;1.00
997;DHT22;487;50.126;8.698;2023-06-26T04:19:13;22.70;1.00
997;DHT22;487;50.126;8.698;2023-06-26T04:21:41;22.70;1.00
997;DHT22;487;50.126;8.698;2023-06-26T04:24:09;22.50;1.00
997;DHT22;487;50.126;8.698;2023-06-26T04:26:41;22.60;1.00
997;DHT22;487;50.126;8.698;2023-06-26T04:29:09;22.70;1.00
997;DHT22;487;50.126;8.698;2023-06-26T04:31:38;22.70;1.00
997;DHT22;487;50.126;8.698;2023-06-26T04:36:36;22.90;1.00
997;DHT22;487;50.126;8.698;2023-06-26T04:39:05;23.00;1.00
997;DHT22;487;50.126;8.698;2023-06-26T04:41:33;23.00;1.00
997;DHT22;487;50.126;8.698;2023-06-26T04:44:01;23.00;1.00
997;DHT22;487;50.126;8.698;2023-06-26T04:46:29;23.00;1.00
997;DHT22;487;50.126;8.698;2023-06-26T04:48:57;22.90;1.00
997;DHT22;487;50.126;8.698;2023-06-26T04:51:25;22.90;1.00
997;DHT22;487;50.126;8.698;2023-06-26T04:53:55;22.90;1.00
997;DHT22;487;50.126;8.698;2023-06-26T04:56:22;22.90;1.00
997;DHT22;487;50.126;8.698;2023-06-26T04:58:50;22.80;1.00
997;DHT22;487;50.126;8.698;2023-06-26T05:01:18;22.90;1.00
997;DHT22;487;50.126;8.698;2023-06-26T05:03:46;22.80;1.00
997;DHT22;487;50.126;8.698;2023-06-26T05:06:14;22.90;1.00
997;DHT22;487;50.126;8.698;2023-06-26T05:08:42;22.20;1.00
997;DHT22;487;50.126;8.698;2023-06-26T05:11:11;22.90;1.00
997;DHT22;487;50.126;8.698;2023-06-26T05:13:40;23.10;1.00
997;DHT22;487;50.126;8.698;2023-06-26T05:16:08;23.20;1.00
997;DHT22;487;50.126;8.698;2023-06-26T05:18:37;23.20;1.00
997;DHT22;487;50.126;8.698;2023-06-26T05:21:05;23.40;1.00
997;DHT22;487;50.126;8.698;2023-06-26T05:23:34;23.70;1.00
997;DHT22;487;50.126;8.698;2023-06-26T05:26:03;23.70;1.00
997;DHT22;487;50.126;8.698;2023-06-26T05:28:33;23.90;1.00
997;DHT22;487;50.126;8.698;2023-06-26T05:31:03;23.90;1.00
997;DHT22;487;50.126;8.698;2023-06-26T05:33:34;24.20;1.00
997;DHT22;487;50.126;8.698;2023-06-26T05:36:04;24.30;1.00
997;DHT22;487;50.126;8.698;2023-06-26T05:38:33;24.30;1.00
997;DHT22;487;50.126;8.698;2023-06-26T05:41:01;24.50;1.00
997;DHT22;487;50.126;8.698;2023-06-26T05:43:29;24.60;1.00
997;DHT22;487;50.126;8.698;2023-06-26T05:45:59;24.70;1.00
997;DHT22;487;50.126;8.698;2023-06-26T05:48:27;24.80;1.00
997;DHT22;487;50.126;8.698;2023-06-26T05:50:55;24.80;1.00
997;DHT22;487;50.126;8.698;2023-06-26T05:53:24;24.80;1.00
997;DHT22;487;50.126;8.698;2023-06-26T05:55:52;24.80;1.00
997;DHT22;487;50.126;8.698;2023-06-26T05:58:21;24.80;1.00
997;DHT22;487;50.126;8.698;2023-06-26T06:00:51;25.10;1.00
997;DHT22;487;50.126;8.698;2023-06-26T06:03:20;25.20;1.00
997;DHT22;487;50.126;8.698;2023-06-26T06:05:49;25.30;1.00
997;DHT22;487;50.126;8.698;2023-06-26T06:08:17;25.30;1.00
997;DHT22;487;50.126;8.698;2023-06-26T06:10:45;25.40;1.00
997;DHT22;487;50.126;8.698;2023-06-26T06:13:12;25.50;1.00
997;DHT22;487;50.126;8.698;2023-06-26T06:15:41;25.60;1.00
997;DHT22;487;50.126;8.698;2023-06-26T06:18:09;25.60;1.00
997;DHT22;487;50.126;8.698;2023-06-26T06:20:41;25.60;1.00
997;DHT22;487;50.126;8.698;2023-06-26T06:23:09;25.60;1.00
997;DHT22;487;50.126;8.698;2023-06-26T06:25:37;25.70;1.00
997;DHT22;487;50.126;8.698;2023-06-26T06:28:06;25.70;1.00
997;DHT22;487;50.126;8.698;2023-06-26T06:30:34;25.80;1.00
997;DHT22;487;50.126;8.698;2023-06-26T06:33:11;25.60;1.00
997;DHT22;487;50.126;8.698;2023-06-26T06:35:39;25.60;1.00
997;DHT22;487;50.126;8.698;2023-06-26T06:38:08;25.00;1.00
997;DHT22;487;50.126;8.698;2023-06-26T06:40:36;25.00;1.00
997;DHT22;487;50.126;8.698;2023-06-26T06:43:05;24.80;1.00
997;DHT22;487;50.126;8.698;2023-06-26T06:45:34;24.80;1.00
997;DHT22;487;50.126;8.698;2023-06-26T06:48:04;24.90;1.00
997;DHT22;487;50.126;8.698;2023-06-26T06:50:32;24.80;1.00
997;DHT22;487;50.126;8.698;2023-06-26T06:53:00;24.80;1.00
997;DHT22;487;50.126;8.698;2023-06-26T06:55:31;24.90;1.00
997;DHT22;487;50.126;8.698;2023-06-26T07:00:31;25.10;1.00
997;DHT22;487;50.126;8.698;2023-06-26T07:02:59;25.20;1.00
997;DHT22;487;50.126;8.698;2023-06-26T07:05:27;25.40;1.00
997;DHT22;487;50.126;8.698;2023-06-26T07:07:55;25.30;1.00
997;DHT22;487;50.126;8.698;2023-06-26T07:10:29;25.30;1.00
997;DHT22;487;50.126;8.698;2023-06-26T07:12:58;25.20;1.00
997;DHT22;487;50.126;8.698;2023-06-26T07:15:31;25.30;1.00
997;DHT22;487;50.126;8.698;2023-06-26T07:17:59;25.20;1.00
997;DHT22;487;50.126;8.698;2023-06-26T07:20:27;25.10;1.00
997;DHT22;487;50.126;8.698;2023-06-26T07:22:55;25.10;1.00
997;DHT22;487;50.126;8.698;2023-06-26T07:25:23;25.20;1.00
997;DHT22;487;50.126;8.698;2023-06-26T07:27:51;25.40;1.00
997;DHT22;487;50.126;8.698;2023-06-26T07:30:20;25.40;1.00
997;DHT22;487;50.126;8.698;2023-06-26T07:32:49;25.60;1.00
997;DHT22;487;50.126;8.698;2023-06-26T07:37:46;25.70;1.00
997;DHT22;487;50.126;8.698;2023-06-26T07:40:14;25.60;1.00
997;DHT22;487;50.126;8.698;2023-06-26T07:42:44;25.40;1.00
997;DHT22;487;50.126;8.698;2023-06-26T07:45:13;25.40;1.00
997;DHT22;487;50.126;8.698;2023-06-26T07:47:42;25.40;1.00
997;DHT22;487;50.126;8.698;2023-06-26T07:50:11;25.50;1.00
997;DHT22;487;50.126;8.698;2023-06-26T07:52:39;25.50;1.00
997;DHT22;487;50.126;8.698;2023-06-26T07:55:07;25.70;1.00
997;DHT22;487;50.126;8.698;2023-06-26T07:57:35;25.70;1.00
997;DHT22;487;50.126;8.698;2023-06-26T08:00:04;25.80;1.00
997;DHT22;487;50.126;8.698;2023-06-26T08:02:33;25.90;1.00
997;DHT22;487;50.126;8.698;2023-06-26T08:05:03;26.00;1.00
997;DHT22;487;50.126;8.698;2023-06-26T08:07:31;26.10;1.00
997;DHT22;487;50.126;8.698;2023-06-26T08:14:56;26.20;1.00
997;DHT22;487;50.126;8.698;2023-06-26T08:17:24;26.30;1.00
997;DHT22;487;50.126;8.698;2023-06-26T08:19:56;26.30;1.00
997;DHT22;487;50.126;8.698;2023-06-26T08:22:25;26.50;1.00
997;DHT22;487;50.126;8.698;2023-06-26T08:24:53;26.60;1.00
997;DHT22;487;50.126;8.698;2023-06-26T08:34:48;26.70;1.00
997;DHT22;487;50.126;8.698;2023-06-26T08:37:17;26.70;1.00
997;DHT22;487;50.126;8.698;2023-06-26T08:39:47;26.70;1.00
997;DHT22;487;50.126;8.698;2023-06-26T08:42:16;26.80;1.00
997;DHT22;487;50.126;8.698;2023-06-26T08:44:44;26.70;1.00
997;DHT22;487;50.126;8.698;2023-06-26T08:47:27;26.60;1.00
997;DHT22;487;50.126;8.698;2023-06-26T08:50:04;26.60;1.00
997;DHT22;487;50.126;8.698;2023-06-26T08:52:37;26.70;1.00
997;DHT22;487;50.126;8.698;2023-06-26T08:55:10;26.70;1.00
997;DHT22;487;50.126;8.698;2023-06-26T08:57:40;27.00;1.00
997;DHT22;487;50.126;8.698;2023-06-26T09:00:10;27.10;1.00
997;DHT22;487;50.126;8.698;2023-06-26T09:02:39;27.20;1.00
997;DHT22;487;50.126;8.698;2023-06-26T09:05:12;27.40;1.00
997;DHT22;487;50.126;8.698;2023-06-26T09:07:39;27.30;1.00
997;DHT22;487;50.126;8.698;2023-06-26T09:10:10;27.30;1.00
997;DHT22;487;50.126;8.698;2023-06-26T09:12:38;27.40;1.00
997;DHT22;487;50.126;8.698;2023-06-26T09:15:06;27.40;1.00
997;DHT22;487;50.126;8.698;2023-06-26T09:17:39;27.50;1.00
997;DHT22;487;50.126;8.698;2023-06-26T09:20:08;27.80;1.00
997;DHT22;487;50.126;8.698;2023-06-26T09:22:37;27.80;1.00
997;DHT22;487;50.126;8.698;2023-06-26T09:25:06;27.80;1.00
997;DHT22;487;50.126;8.698;2023-06-26T09:27:36;27.80;1.00
997;DHT22;487;50.126;8.698;2023-06-26T09:30:06;27.80;1.00
997;DHT22;487;50.126;8.698;2023-06-26T09:32:34;28.00;1.00
997;DHT22;487;50.126;8.698;2023-06-26T09:35:04;28.10;1.00
997;DHT22;487;50.126;8.698;2023-06-26T09:37:33;28.10;1.00
997;DHT22;487;50.126;8.698;2023-06-26T09:40:01;28.20;1.00
997;DHT22;487;50.126;8.698;2023-06-26T09:42:29;28.30;1.00
997;DHT22;487;50.126;8.698;2023-06-26T09:44:59;28.30;1.00
997;DHT22;487;50.126;8.698;2023-06-26T09:47:30;27.60;1.00
997;DHT22;487;50.126;8.698;2023-06-26T09:49:58;28.00;1.00
997;DHT22;487;50.126;8.698;2023-06-26T09:52:26;27.90;1.00
997;DHT22;487;50.126;8.698;2023-06-26T09:55:07;28.10;1.00
997;DHT22;487;50.126;8.698;2023-06-26T09:57:35;28.40;1.00
997;DHT22;487;50.126;8.698;2023-06-26T10:00:05;28.40;1.00
997;DHT22;487;50.126;8.698;2023-06-26T10:02:35;28.40;1.00
997;DHT22;487;50.126;8.698;2023-06-26T10:05:03;28.50;1.00
997;DHT22;487;50.126;8.698;2023-06-26T10:07:31;28.50;1.00
997;DHT22;487;50.126;8.698;2023-06-26T10:10:01;28.50;1.00
997;DHT22;487;50.126;8.698;2023-06-26T10:12:31;28.50;1.00
997;DHT22;487;50.126;8.698;2023-06-26T10:17:34;28.70;1.00
997;DHT22;487;50.126;8.698;2023-06-26T10:20:06;28.90;1.00
997;DHT22;487;50.126;8.698;2023-06-26T10:22:41;28.80;1.00
997;DHT22;487;50.126;8.698;2023-06-26T10:25:11;28.60;1.00
997;DHT22;487;50.126;8.698;2023-06-26T10:27:42;28.50;1.00
997;DHT22;487;50.126;8.698;2023-06-26T10:30:14;28.50;1.00
997;DHT22;487;50.126;8.698;2023-06-26T10:32:45;26.50;1.00
997;DHT22;487;50.126;8.698;2023-06-26T10:35:14;28.40;1.00
997;DHT22;487;50.126;8.698;2023-06-26T10:37:42;28.40;1.00
997;DHT22;487;50.126;8.698;2023-06-26T10:40:12;28.40;1.00
997;DHT22;487;50.126;8.698;2023-06-26T10:42:40;28.50;1.00
997;DHT22;487;50.126;8.698;2023-06-26T10:45:13;28.60;1.00
997;DHT22;487;50.126;8.698;2023-06-26T10:47:46;28.60;1.00
997;DHT22;487;50.126;8.698;2023-06-26T10:50:23;28.70;1.00
997;DHT22;487;50.126;8.698;2023-06-26T10:53:08;28.80;1.00
997;DHT22;487;50.126;8.698;2023-06-26T10:55:37;28.90;1.00
997;DHT22;487;50.126;8.698;2023-06-26T10:58:30;29.00;1.00
997;DHT22;487;50.126;8.698;2023-06-26T11:01:22;28.90;1.00
997;DHT22;487;50.126;8.698;2023-06-26T11:06:38;28.80;1.00
997;DHT22;487;50.126;8.698;2023-06-26T11:09:08;28.80;1.00
997;DHT22;487;50.126;8.698;2023-06-26T11:11:59;28.40;1.00
997;DHT22;487;50.126;8.698;2023-06-26T11:14:33;28.40;1.00
997;DHT22;487;50.126;8.698;2023-06-26T11:17:04;28.50;1.00
997;DHT22;487;50.126;8.698;2023-06-26T11:19:32;28.70;1.00
997;DHT22;487;50.126;8.698;2023-06-26T11:22:04;28.70;1.00
997;DHT22;487;50.126;8.698;2023-06-26T11:24:33;28.80;1.00
997;DHT22;487;50.126;8.698;2023-06-26T11:27:02;28.80;1.00
997;DHT22;487;50.126;8.698;2023-06-26T11:29:32;28.90;1.00
997;DHT22;487;50.126;8.698;2023-06-26T11:32:03;29.00;1.00
997;DHT22;487;50.126;8.698;2023-06-26T11:34:33;28.90;1.00
997;DHT22;487;50.126;8.698;2023-06-26T11:37:02;29.00;1.00
997;DHT22;487;50.126;8.698;2023-06-26T11:39:30;28.80;1.00
997;DHT22;487;50.126;8.698;2023-06-26T11:41:59;28.90;1.00
997;DHT22;487;50.126;8.698;2023-06-26T11:44:32;29.00;1.00
997;DHT22;487;50.126;8.698;2023-06-26T11:47:07;29.20;1.00
997;DHT22;487;50.126;8.698;2023-06-26T11:49:35;29.30;1.00
997;DHT22;487;50.126;8.698;2023-06-26T11:52:03;29.30;1.00
997;DHT22;487;50.126;8.698;2023-06-26T11:54:31;29.50;1.00
997;DHT22;487;50.126;8.698;2023-06-26T11:56:59;29.50;1.00
997;DHT22;487;50.126;8.698;2023-06-26T11:59:36;29.50;1.00
997;DHT22;487;50.126;8.698;2023-06-26T12:02:10;29.60;1.00
997;DHT22;487;50.126;8.698;2023-06-26T12:04:42;29.70;1.00
997;DHT22;487;50.126;8.698;2023-06-26T12:07:12;29.70;1.00
997;DHT22;487;50.126;8.698;2023-06-26T12:09:42;29.70;1.00
997;DHT22;487;50.126;8.698;2023-06-26T12:12:13;29.60;1.00
997;DHT22;487;50.126;8.698;2023-06-26T12:14:43;29.40;1.00
997;DHT22;487;50.126;8.698;2023-06-26T12:17:13;29.40;1.00
997;DHT22;487;50.126;8.698;2023-06-26T12:19:44;29.60;1.00
997;DHT22;487;50.126;8.698;2023-06-26T12:22:12;29.60;1.00
997;DHT22;487;50.126;8.698;2023-06-26T12:24:40;29.50;1.00
997;DHT22;487;50.126;8.698;2023-06-26T12:29:40;29.40;1.00
997;DHT22;487;50.126;8.698;2023-06-26T12:32:10;29.40;1.00
997;DHT22;487;50.126;8.698;2023-06-26T12:34:39;29.40;1.00
997;DHT22;487;50.126;8.698;2023-06-26T12:37:08;29.40;1.00
997;DHT22;487;50.126;8.698;2023-06-26T12:39:47;29.40;1.00
997;DHT22;487;50.126;8.698;2023-06-26T12:42:17;29.40;1.00
997;DHT22;487;50.126;8.698;2023-06-26T12:44:45;29.60;1.00
997;DHT22;487;50.126;8.698;2023-06-26T12:47:15;29.60;1.00
997;DHT22;487;50.126;8.698;2023-06-26T12:49:45;29.60;1.00
997;DHT22;487;50.126;8.698;2023-06-26T12:52:17;29.50;1.00
997;DHT22;487;50.126;8.698;2023-06-26T12:54:46;29.50;1.00
997;DHT22;487;50.126;8.698;2023-06-26T12:57:14;29.50;1.00
997;DHT22;487;50.126;8.698;2023-06-26T12:59:42;29.40;1.00
997;DHT22;487;50.126;8.698;2023-06-26T13:02:11;29.50;1.00
997;DHT22;487;50.126;8.698;2023-06-26T13:04:40;29.40;1.00
997;DHT22;487;50.126;8.698;2023-06-26T13:07:10;29.30;1.00
997;DHT22;487;50.126;8.698;2023-06-26T13:09:39;29.20;1.00
997;DHT22;487;50.126;8.698;2023-06-26T13:12:08;29.10;1.00
997;DHT22;487;50.126;8.698;2023-06-26T13:14:36;29.20;1.00
997;DHT22;487;50.126;8.698;2023-06-26T13:17:05;29.10;1.00
997;DHT22;487;50.126;8.698;2023-06-26T13:19:35;29.00;1.00
997;DHT22;487;50.126;8.698;2023-06-26T13:22:05;28.90;1.00
997;DHT22;487;50.126;8.698;2023-06-26T13:24:33;29.10;1.00
997;DHT22;487;50.126;8.698;2023-06-26T13:27:01;29.20;1.00
997;DHT22;487;50.126;8.698;2023-06-26T13:29:29;29.20;1.00
997;DHT22;487;50.126;8.698;2023-06-26T13:31:57;29.20;1.00
997;DHT22;487;50.126;8.698;2023-06-26T13:34:27;29.20;1.00
997;DHT22;487;50.126;8.698;2023-06-26T13:36:56;29.10;1.00
997;DHT22;487;50.126;8.698;2023-06-26T13:39:27;29.10;1.00
997;DHT22;487;50.126;8.698;2023-06-26T13:41:55;29.00;1.00
997;DHT22;487;50.126;8.698;2023-06-26T13:44:24;29.00;1.00
997;DHT22;487;50.126;8.698;2023-06-26T13:47:04;29.10;1.00
997;DHT22;487;50.126;8.698;2023-06-26T13:49:36;28.90;1.00
997;DHT22;487;50.126;8.698;2023-06-26T13:52:04;28.80;1.00
997;DHT22;487;50.126;8.698;2023-06-26T13:54:35;28.80;1.00
997;DHT22;487;50.126;8.698;2023-06-26T13:57:04;28.80;1.00
997;DHT22;487;50.126;8.698;2023-06-26T13:59:32;28.70;1.00
997;DHT22;487;50.126;8.698;2023-06-26T14:02:00;28.70;1.00
997;DHT22;487;50.126;8.698;2023-06-26T14:04:28;28.70;1.00
997;DHT22;487;50.126;8.698;2023-06-26T14:06:56;28.70;1.00
997;DHT22;487;50.126;8.698;2023-06-26T14:11:54;28.90;1.00
997;DHT22;487;50.126;8.698;2023-06-26T14:14:22;28.90;1.00
997;DHT22;487;50.126;8.698;2023-06-26T14:16:49;29.00;1.00
997;DHT22;487;50.126;8.698;2023-06-26T14:19:17;29.00;1.00
997;DHT22;487;50.126;8.698;2023-06-26T14:21:45;29.00;1.00
997;DHT22;487;50.126;8.698;2023-06-26T14:26:41;28.90;1.00
997;DHT22;487;50.126;8.698;2023-06-26T14:29:11;28.90;1.00
997;DHT22;487;50.126;8.698;2023-06-26T14:31:39;28.80;1.00
997;DHT22;487;50.126;8.698;2023-06-26T14:34:07;28.70;1.00
997;DHT22;487;50.126;8.698;2023-06-26T14:36:35;28.70;1.00
997;DHT22;487;50.126;8.698;2023-06-26T14:39:04;28.70;1.00
997;DHT22;487;50.126;8.698;2023-06-26T14:41:32;28.70;1.00
997;DHT22;487;50.126;8.698;2023-06-26T14:44:01;28.70;1.00
997;DHT22;487;50.126;8.698;2023-06-26T14:46:31;28.70;1.00
997;DHT22;487;50.126;8.698;2023-06-26T14:48:59;28.70;1.00
997;DHT22;487;50.126;8.698;2023-06-26T14:51:27;28.80;1.00
997;DHT22;487;50.126;8.698;2023-06-26T14:53:55;28.80;1.00
997;DHT22;487;50.126;8.698;2023-06-26T14:56:23;28.70;1.00
997;DHT22;487;50.126;8.698;2023-06-26T14:58:51;28.60;1.00
997;DHT22;487;50.126;8.698;2023-06-26T15:03:50;28.60;1.00
997;DHT22;487;50.126;8.698;2023-06-26T15:06:18;28.60;1.00
997;DHT22;487;50.126;8.698;2023-06-26T15:08:46;28.60;1.00
997;DHT22;487;50.126;8.698;2023-06-26T15:11:14;28.70;1.00
997;DHT22;487;50.126;8.698;2023-06-26T15:13:42;28.30;1.00
997;DHT22;487;50.126;8.698;2023-06-26T15:16:09;28.70;1.00
997;DHT22;487;50.126;8.698;2023-06-26T15:18:38;28.80;1.00
997;DHT22;487;50.126;8.698;2023-06-26T15:21:07;28.80;1.00
997;DHT22;487;50.126;8.698;2023-06-26T15:23:35;28.80;1.00
997;DHT22;487;50.126;8.698;2023-06-26T15:26:03;28.60;1.00
997;DHT22;487;50.126;8.698;2023-06-26T15:28:31;28.60;1.00
997;DHT22;487;50.126;8.698;2023-06-26T15:30:59;28.60;1.00
997;DHT22;487;50.126;8.698;2023-06-26T15:33:27;28.60;1.00
997;DHT22;487;50.126;8.698;2023-06-26T15:35:54;28.80;1.00
997;DHT22;487;50.126;8.698;2023-06-26T15:38:24;28.80;1.00
997;DHT22;487;50.126;8.698;2023-06-26T15:40:52;29.00;1.00
997;DHT22;487;50.126;8.698;2023-06-26T15:43:20;28.90;1.00
997;DHT22;487;50.126;8.698;2023-06-26T15:45:48;28.90;1.00
997;DHT22;487;50.126;8.698;2023-06-26T15:48:16;28.80;1.00
997;DHT22;487;50.126;8.698;2023-06-26T15:50:43;28.90;1.00
997;DHT22;487;50.126;8.698;2023-06-26T15:53:15;28.90;1.00
997;DHT22;487;50.126;8.698;2023-06-26T15:58:13;28.90;1.00
997;DHT22;487;50.126;8.698;2023-06-26T16:00:41;28.90;1.00
997;DHT22;487;50.126;8.698;2023-06-26T16:03:09;28.80;1.00
997;DHT22;487;50.126;8.698;2023-06-26T16:05:37;28.90;1.00
997;DHT22;487;50.126;8.698;2023-06-26T16:08:05;29.00;1.00
997;DHT22;487;50.126;8.698;2023-06-26T16:10:33;29.10;1.00
997;DHT22;487;50.126;8.698;2023-06-26T16:13:02;29.20;1.00
997;DHT22;487;50.126;8.698;2023-06-26T16:15:30;29.10;1.00
997;DHT22;487;50.126;8.698;2023-06-26T16:17:58;29.20;1.00
997;DHT22;487;50.126;8.698;2023-06-26T16:22:55;29.10;1.00
997;DHT22;487;50.126;8.698;2023-06-26T16:25:23;29.00;1.00
997;DHT22;487;50.126;8.698;2023-06-26T16:27:51;29.00;1.00
997;DHT22;487;50.126;8.698;2023-06-26T16:30:20;28.80;1.00
997;DHT22;487;50.126;8.698;2023-06-26T16:32:48;28.80;1.00
997;DHT22;487;50.126;8.698;2023-06-26T16:35:16;28.90;1.00
997;DHT22;487;50.126;8.698;2023-06-26T16:37:43;28.80;1.00
997;DHT22;487;50.126;8.698;2023-06-26T16:40:11;28.80;1.00
997;DHT22;487;50.126;8.698;2023-06-26T16:42:42;29.00;1.00
997;DHT22;487;50.126;8.698;2023-06-26T16:45:10;28.80;1.00
997;DHT22;487;50.126;8.698;2023-06-26T16:47:39;28.90;1.00
997;DHT22;487;50.126;8.698;2023-06-26T16:50:08;28.90;1.00
997;DHT22;487;50.126;8.698;2023-06-26T16:52:36;28.90;1.00
997;DHT22;487;50.126;8.698;2023-06-26T16:55:05;28.80;1.00
997;DHT22;487;50.126;8.698;2023-06-26T16:57:33;28.80;1.00
997;DHT22;487;50.126;8.698;2023-06-26T17:00:02;28.80;1.00
997;DHT22;487;50.126;8.698;2023-06-26T17:02:30;28.80;1.00
997;DHT22;487;50.126;8.698;2023-06-26T17:05:00;28.80;1.00
997;DHT22;487;50.126;8.698;2023-06-26T17:07:27;28.90;1.00
997;DHT22;487;50.126;8.698;2023-06-26T17:09:57;29.00;1.00
997;DHT22;487;50.126;8.698;2023-06-26T17:12:24;29.10;1.00
997;DHT22;487;50.126;8.698;2023-06-26T17:14:53;29.20;1.00
997;DHT22;487;50.126;8.698;2023-06-26T17:17:21;29.20;1.00
997;DHT22;487;50.126;8.698;2023-06-26T17:19:49;29.20;1.00
997;DHT22;487;50.126;8.698;2023-06-26T17:22:19;28.90;1.00
997;DHT22;487;50.126;8.698;2023-06-26T17:24:47;28.60;1.00
997;DHT22;487;50.126;8.698;2023-06-26T17:27:14;28.70;1.00
997;DHT22;487;50.126;8.698;2023-06-26T17:32:15;28.20;1.00
997;DHT22;487;50.126;8.698;2023-06-26T17:34:48;28.10;1.00
997;DHT22;487;50.126;8.698;2023-06-26T17:37:16;28.10;1.00
997;DHT22;487;50.126;8.698;2023-06-26T17:39:45;27.20;1.00
997;DHT22;487;50.126;8.698;2023-06-26T17:42:13;27.90;1.00
997;DHT22;487;50.126;8.698;2023-06-26T17:44:41;27.90;1.00
997;DHT22;487;50.126;8.698;2023-06-26T17:47:09;27.80;1.00
997;DHT22;487;50.126;8.698;2023-06-26T17:49:37;27.80;1.00
997;DHT22;487;50.126;8.698;2023-06-26T17:52:06;27.60;1.00
997;DHT22;487;50.126;8.698;2023-06-26T17:54:35;27.50;1.00
997;DHT22;487;50.126;8.698;2023-06-26T17:57:05;27.40;1.00
997;DHT22;487;50.126;8.698;2023-06-26T17:59:33;27.30;1.00
997;DHT22;487;50.126;8.698;2023-06-26T18:02:01;27.20;1.00
997;DHT22;487;50.126;8.698;2023-06-26T18:04:30;26.70;1.00
997;DHT22;487;50.126;8.698;2023-06-26T18:06:58;26.70;1.00
997;DHT22;487;50.126;8.698;2023-06-26T18:09:26;26.60;1.00
997;DHT22;487;50.126;8.698;2023-06-26T18:11:54;26.40;1.00
997;DHT22;487;50.126;8.698;2023-06-26T18:19:19;25.80;1.00
997;DHT22;487;50.126;8.698;2023-06-26T18:21:47;25.60;1.00
997;DHT22;487;50.126;8.698;2023-06-26T18:24:15;25.50;1.00
997;DHT22;487;50.126;8.698;2023-06-26T18:26:43;25.40;1.00
997;DHT22;487;50.126;8.698;2023-06-26T18:29:11;25.30;1.00
997;DHT22;487;50.126;8.698;2023-06-26T18:31:40;25.20;1.00
997;DHT22;487;50.126;8.698;2023-06-26T18:34:08;25.20;1.00
997;DHT22;487;50.126;8.698;2023-06-26T18:36:36;25.20;1.00
997;DHT22;487;50.126;8.698;2023-06-26T18:41:33;25.00;1.00
997;DHT22;487;50.126;8.698;2023-06-26T18:44:01;25.00;1.00
997;DHT22;487;50.126;8.698;2023-06-26T18:46:29;25.00;1.00
997;DHT22;487;50.126;8.698;2023-06-26T18:49:03;24.90;1.00
997;DHT22;487;50.126;8.698;2023-06-26T18:51:32;24.80;1.00
997;DHT22;487;50.126;8.698;2023-06-26T18:54:01;24.80;1.00
997;DHT22;487;50.126;8.698;2023-06-26T18:56:31;24.80;1.00
997;DHT22;487;50.126;8.698;2023-06-26T18:58:59;24.70;1.00
997;DHT22;487;50.126;8.698;2023-06-26T19:01:27;24.70;1.00
997;DHT22;487;50.126;8.698;2023-06-26T19:03:55;24.60;1.00
997;DHT22;487;50.126;8.698;2023-06-26T19:06:25;24.70;1.00
997;DHT22;487;50.126;8.698;2023-06-26T19:08:53;24.70;1.00
997;DHT22;487;50.126;8.698;2023-06-26T19:13:49;24.70;1.00
997;DHT22;487;50.126;8.698;2023-06-26T19:18:46;24.60;1.00
997;DHT22;487;50.126;8.698;2023-06-26T19:21:14;24.60;1.00
997;DHT22;487;50.126;8.698;2023-06-26T19:23:43;24.50;1.00
997;DHT22;487;50.126;8.698;2023-06-26T19:26:11;24.40;1.00
997;DHT22;487;50.126;8.698;2023-06-26T19:28:39;24.40;1.00
997;DHT22;487;50.126;8.698;2023-06-26T19:31:07;24.30;1.00
997;DHT22;487;50.126;8.698;2023-06-26T19:36:04;24.30;1.00
997;DHT22;487;50.126;8.698;2023-06-26T19:38:32;24.30;1.00
997;DHT22;487;50.126;8.698;2023-06-26T19:41:01;24.30;1.00
997;DHT22;487;50.126;8.698;2023-06-26T19:43:31;24.30;1.00
997;DHT22;487;50.126;8.698;2023-06-26T19:45:59;24.30;1.00
997;DHT22;487;50.126;8.698;2023-06-26T19:48:29;24.20;1.00
997;DHT22;487;50.126;8.698;2023-06-26T19:50:57;24.20;1.00
997;DHT22;487;50.126;8.698;2023-06-26T19:53:25;24.20;1.00
997;DHT22;487;50.126;8.698;2023-06-26T19:55:53;24.10;1.00
997;DHT22;487;50.126;8.698;2023-06-26T19:58:22;24.10;1.00
997;DHT22;487;50.126;8.698;2023-06-26T20:00:50;24.10;1.00
997;DHT22;487;50.126;8.698;2023-06-26T20:03:18;24.10;1.00
997;DHT22;487;50.126;8.698;2023-06-26T20:05:46;24.10;1.00
997;DHT22;487;50.126;8.698;2023-06-26T20:08:15;24.10;1.00
997;DHT22;487;50.126;8.698;2023-06-26T20:10:43;24.00;1.00
997;DHT22;487;50.126;8.698;2023-06-26T20:13:11;24.00;1.00
997;DHT22;487;50.126;8.698;2023-06-26T20:15:41;23.90;1.00
997;DHT22;487;50.126;8.698;2023-06-26T20:18:09;23.90;1.00
997;DHT22;487;50.126;8.698;2023-06-26T20:20:37;23.90;1.00
997;DHT22;487;50.126;8.698;2023-06-26T20:23:05;23.80;1.00
997;DHT22;487;50.126;8.698;2023-06-26T20:25:33;23.80;1.00
997;DHT22;487;50.126;8.698;2023-06-26T20:28:01;23.80;1.00
997;DHT22;487;50.126;8.698;2023-06-26T20:30:29;23.80;1.00
997;DHT22;487;50.126;8.698;2023-06-26T20:32:58;23.70;1.00
997;DHT22;487;50.126;8.698;2023-06-26T20:35:26;23.70;1.00
997;DHT22;487;50.126;8.698;2023-06-26T20:37:55;23.70;1.00
997;DHT22;487;50.126;8.698;2023-06-26T20:40:24;23.60;1.00
997;DHT22;487;50.126;8.698;2023-06-26T20:42:52;22.70;1.00
997;DHT22;487;50.126;8.698;2023-06-26T20:45:21;23.60;1.00
997;DHT22;487;50.126;8.698;2023-06-26T20:47:50;23.50;1.00
997;DHT22;487;50.126;8.698;2023-06-26T20:50:21;23.50;1.00
997;DHT22;487;50.126;8.698;2023-06-26T20:52:50;23.50;1.00
997;DHT22;487;50.126;8.698;2023-06-26T20:55:19;23.50;1.00
997;DHT22;487;50.126;8.698;2023-06-26T20:57:47;23.40;1.00
997;DHT22;487;50.126;8.698;2023-06-26T21:00:16;23.50;1.00
997;DHT22;487;50.126;8.698;2023-06-26T21:02:45;23.40;1.00
997;DHT22;487;50.126;8.698;2023-06-26T21:05:13;23.40;1.00
997;DHT22;487;50.126;8.698;2023-06-26T21:07:42;23.40;1.00
997;DHT22;487;50.126;8.698;2023-06-26T21:10:10;23.40;1.00
997;DHT22;487;50.126;8.698;2023-06-26T21:12:38;23.40;1.00
997;DHT22;487;50.126;8.698;2023-06-26T21:15:07;23.30;1.00
997;DHT22;487;50.126;8.698;2023-06-26T21:17:35;23.30;1.00
997;DHT22;487;50.126;8.698;2023-06-26T21:20:03;23.30;1.00
997;DHT22;487;50.126;8.698;2023-06-26T21:22:31;23.30;1.00
997;DHT22;487;50.126;8.698;2023-06-26T21:25:01;23.30;1.00
997;DHT22;487;50.126;8.698;2023-06-26T21:27:30;23.20;1.00
997;DHT22;487;50.126;8.698;2023-06-26T21:29:57;23.20;1.00
997;DHT22;487;50.126;8.698;2023-06-26T21:34:54;23.10;1.00
997;DHT22;487;50.126;8.698;2023-06-26T21:37:22;23.10;1.00
997;DHT22;487;50.126;8.698;2023-06-26T21:39:49;23.00;1.00
997;DHT22;487;50.126;8.698;2023-06-26T21:42:19;22.90;1.00
997;DHT22;487;50.126;8.698;2023-06-26T21:44:46;22.80;1.00
997;DHT22;487;50.126;8.698;2023-06-26T21:47:14;22.80;1.00
997;DHT22;487;50.126;8.698;2023-06-26T21:49:42;22.70;1.00
997;DHT22;487;50.126;8.698;2023-06-26T21:52:11;22.60;1.00
997;DHT22;487;50.126;8.698;2023-06-26T21:54:39;22.60;1.00
997;DHT22;487;50.126;8.698;2023-06-26T21:57:07;22.60;1.00
997;DHT22;487;50.126;8.698;2023-06-26T21:59:37;22.60;1.00
997;DHT22;487;50.126;8.698;2023-06-26T22:04:34;22.60;1.00
997;DHT22;487;50.126;8.698;2023-06-26T22:07:02;22.50;1.00
997;DHT22;487;50.126;8.698;2023-06-26T22:09:30;22.50;1.00
997;DHT22;487;50.126;8.698;2023-06-26T22:11:58;22.50;1.00
997;DHT22;487;50.126;8.698;2023-06-26T22:14:26;22.50;1.00